Time;durP1;ratioP1;P1;durP2;ratioP2;P2;SDS_P1;SDS_P2;PMS_P1;PMS_P2;Temp;Humidity;BMP_temperature;BMP_pressure;BME280_temperature;BME280_humidity;BME280_pressure;Samples;Min_cycle;Max_cycle;Signal;HPM_P1;HPM_P2
2020/12/25 00:09:46;;;;;;;7.53;2.92;;;23.80;45.80;;;;;;21022193;22;20071;-16
2020/12/25 00:19:47;;;;;;;10.00;2.35;;;23.50;45.80;;;;;;21064507;28;20032;-16
2020/12/25 00:29:47;;;;;;;5.38;2.22;;;23.20;46.30;;;;;;21065122;28;20104;-16
2020/12/25 00:39:48;;;;;;;5.18;2.05;;;22.80;46.40;;;;;;21064859;28;20024;-16
2020/12/25 00:49:48;;;;;;;4.50;1.60;;;22.60;46.30;;;;;;21077137;28;20031;-16
2020/12/25 00:59:49;;;;;;;3.30;1.33;;;22.50;45.60;;;;;;21074895;28;20107;-16
2020/12/25 01:09:50;;;;;;;3.28;1.80;;;22.50;45.20;;;;;;21075581;28;20115;-16
2020/12/25 01:19:50;;;;;;;3.70;1.75;;;22.20;45.50;;;;;;21061931;28;20027;-16
2020/12/25 01:29:51;;;;;;;3.40;1.17;;;22.20;45.00;;;;;;21073539;28;20453;-16
2020/12/25 01:39:51;;;;;;;3.13;1.02;;;22.10;45.20;;;;;;21072732;28;20069;-16
2020/12/25 01:49:53;;;;;;;5.45;1.58;;;22.10;44.90;;;;;;21071355;28;20024;-16
2020/12/25 01:59:54;;;;;;;3.83;1.10;;;22.00;44.50;;;;;;21070785;28;20055;-16
2020/12/25 02:09:54;;;;;;;2.38;0.80;;;21.70;44.80;;;;;;21069808;28;20032;-17
2020/12/25 02:19:55;;;;;;;1.50;0.60;;;21.50;44.90;;;;;;21033921;28;20027;-16
2020/12/25 02:29:55;;;;;;;1.85;0.70;;;21.50;44.60;;;;;;21022533;28;20476;-16
2020/12/25 02:39:56;;;;;;;5.07;1.15;;;21.50;44.30;;;;;;21017120;28;20050;-16
2020/12/25 02:49:57;;;;;;;2.78;0.65;;;21.40;44.30;;;;;;21021580;28;20026;-16
2020/12/25 02:59:58;;;;;;;5.50;0.98;;;21.30;44.50;;;;;;21011032;28;20063;-16
2020/12/25 03:09:58;;;;;;;2.17;0.80;;;21.20;44.30;;;;;;21025323;28;20044;-16
2020/12/25 03:19:59;;;;;;;1.33;0.70;;;21.10;44.20;;;;;;21032494;28;20462;-16
2020/12/25 03:29:59;;;;;;;1.40;0.52;;;20.90;44.80;;;;;;21014905;28;20039;-16
2020/12/25 03:40:01;;;;;;;3.33;0.70;;;21.00;43.90;;;;;;21025930;28;20099;-16
2020/12/25 03:50:02;;;;;;;2.78;0.70;;;21.00;44.00;;;;;;21018265;28;20547;-16
2020/12/25 04:00:04;;;;;;;3.80;1.13;;;20.90;44.90;;;;;;21036976;28;20495;-16
2020/12/25 04:10:04;;;;;;;2.60;0.82;;;20.90;45.10;;;;;;21030807;28;20036;-16
2020/12/25 04:20:05;;;;;;;4.03;0.70;;;20.80;45.60;;;;;;21025279;28;20543;-16
2020/12/25 04:30:06;;;;;;;4.72;0.90;;;20.80;45.90;;;;;;21046423;28;20024;-16
2020/12/25 04:40:07;;;;;;;8.63;1.85;;;20.70;45.90;;;;;;21042779;28;20035;-16
2020/12/25 04:50:07;;;;;;;3.70;0.70;;;20.60;45.90;;;;;;21035721;28;20052;-16
2020/12/25 05:00:28;;;;;;;2.22;0.65;;;20.60;45.70;;;;;;21074572;28;20024;-16
2020/12/25 05:10:28;;;;;;;2.25;0.60;;;20.50;45.50;;;;;;21050461;28;20048;-16
2020/12/25 05:20:30;;;;;;;2.65;0.90;;;20.60;46.00;;;;;;21059955;28;20027;-15
2020/12/25 05:30:32;;;;;;;1.67;0.60;;;21.00;45.00;;;;;;21073012;28;20055;-16
2020/12/25 05:40:42;;;;;;;3.03;0.63;;;21.10;44.50;;;;;;21072210;28;20453;-17
2020/12/25 05:50:42;;;;;;;1.83;0.50;;;21.20;43.70;;;;;;21069796;28;20027;-17
2020/12/25 06:00:43;;;;;;;5.28;0.65;;;21.10;43.50;;;;;;21068432;28;20066;-16
2020/12/25 06:10:46;;;;;;;3.60;0.63;;;21.20;42.90;;;;;;21054500;22;20048;-15
2020/12/25 06:21:03;;;;;;;3.25;0.93;;;21.20;42.80;;;;;;21053251;28;20033;-15
2020/12/25 06:31:03;;;;;;;2.45;1.00;;;21.20;42.90;;;;;;21062507;28;20031;-15
2020/12/25 06:41:04;;;;;;;1.20;0.50;;;21.20;42.50;;;;;;21056187;28;20028;-17
2020/12/25 06:51:11;;;;;;;2.20;0.73;;;21.20;42.60;;;;;;21069680;28;20073;-15
2020/12/25 07:01:13;;;;;;;2.92;0.70;;;21.20;42.20;;;;;;21068690;28;20067;-15
2020/12/25 07:11:15;;;;;;;4.15;0.60;;;21.10;42.40;;;;;;21068221;28;20484;-15
2020/12/25 07:21:15;;;;;;;0.70;0.30;;;21.20;41.90;;;;;;21056122;28;20032;-15
2020/12/25 07:31:18;;;;;;;2.05;0.50;;;21.10;42.10;;;;;;21078176;28;20043;-15
2020/12/25 07:41:19;;;;;;;3.08;0.70;;;21.10;41.60;;;;;;21091976;28;20438;-16
2020/12/25 07:51:20;;;;;;;1.35;0.40;;;21.10;41.50;;;;;;21083374;28;20055;-15
2020/12/25 08:01:25;;;;;;;3.30;0.80;;;21.00;41.70;;;;;;21082160;28;20024;-17
2020/12/25 08:11:27;;;;;;;9.10;0.63;;;21.10;41.50;;;;;;21006243;28;20039;-15
2020/12/25 08:21:33;;;;;;;1.63;0.60;;;21.00;41.80;;;;;;21061991;28;20027;-17
2020/12/25 08:31:38;;;;;;;6.60;0.85;;;20.80;42.40;;;;;;21074281;28;20017;-17
2020/12/25 08:41:39;;;;;;;6.80;0.85;;;20.60;42.90;;;;;;21071120;28;20054;-17
2020/12/25 08:51:39;;;;;;;9.85;1.65;;;20.70;43.50;;;;;;21052498;28;20036;-16
2020/12/25 09:01:41;;;;;;;9.05;1.00;;;21.30;43.20;;;;;;21017520;28;20032;-15
2020/12/25 09:11:41;;;;;;;4.60;1.20;;;21.80;43.00;;;;;;21023295;28;20516;-15
2020/12/25 09:21:42;;;;;;;5.68;0.90;;;22.60;41.40;;;;;;21071670;28;20117;-17
2020/12/25 09:31:42;;;;;;;5.80;1.30;;;23.00;40.80;;;;;;21075996;28;20048;-17
2020/12/25 09:41:43;;;;;;;6.10;0.90;;;23.40;40.60;;;;;;21074167;28;20055;-17
2020/12/25 09:51:43;;;;;;;10.20;1.13;;;23.70;40.20;;;;;;21049485;28;20028;-16
2020/12/25 10:01:44;;;;;;;11.32;0.95;;;23.80;40.30;;;;;;21039537;28;20031;-16
2020/12/25 10:11:45;;;;;;;5.13;1.70;;;23.90;40.40;;;;;;21054227;28;20050;-16
2020/12/25 10:21:45;;;;;;;6.88;1.02;;;24.00;39.90;;;;;;21071485;28;20495;-16
2020/12/25 10:31:47;;;;;;;19.88;4.07;;;23.70;40.50;;;;;;21070470;28;20095;-16
2020/12/25 10:41:48;;;;;;;26.13;7.30;;;23.50;41.20;;;;;;21018581;28;20032;-16
2020/12/25 10:51:48;;;;;;;20.27;5.00;;;23.50;40.10;;;;;;21068696;28;20124;-17
2020/12/25 11:01:49;;;;;;;15.75;4.88;;;23.20;39.60;;;;;;21073551;28;20031;-17
2020/12/25 11:11:49;;;;;;;16.30;4.82;;;22.90;40.10;;;;;;21091301;28;20075;-17
2020/12/25 11:21:50;;;;;;;17.03;4.40;;;22.60;40.60;;;;;;21097289;28;20016;-16
2020/12/25 11:31:50;;;;;;;9.43;3.85;;;22.20;41.60;;;;;;21085245;28;20059;-16
2020/12/25 11:41:51;;;;;;;12.27;4.15;;;22.00;42.10;;;;;;21084711;28;20516;-16
2020/12/25 11:51:56;;;;;;;9.55;3.08;;;21.80;43.00;;;;;;21090250;28;20024;-16
2020/12/25 12:01:56;;;;;;;8.52;3.25;;;21.60;43.30;;;;;;21083463;28;20030;-17
2020/12/25 12:11:57;;;;;;;7.40;3.28;;;21.50;43.50;;;;;;21057569;22;20068;-16
2020/12/25 12:21:57;;;;;;;8.52;3.53;;;21.50;43.70;;;;;;21056152;28;20108;-17
2020/12/25 12:31:58;;;;;;;8.05;3.22;;;21.30;44.10;;;;;;21074494;28;20071;-16
2020/12/25 12:41:59;;;;;;;12.70;3.90;;;21.20;44.40;;;;;;21063796;28;20039;-16
2020/12/25 12:51:59;;;;;;;8.32;2.65;;;21.20;44.40;;;;;;21076871;28;20024;-16
2020/12/25 13:02:00;;;;;;;7.57;2.05;;;21.20;44.60;;;;;;21024132;28;20032;-16
2020/12/25 13:12:00;;;;;;;10.52;3.08;;;21.10;45.70;;;;;;21048227;28;20085;-16
2020/12/25 13:22:01;;;;;;;7.13;2.47;;;21.00;45.80;;;;;;21047877;28;20028;-17
2020/12/25 13:32:02;;;;;;;7.70;1.90;;;20.90;45.80;;;;;;21046499;28;20024;-16
2020/12/25 13:42:02;;;;;;;4.18;1.88;;;20.90;45.90;;;;;;21073391;28;20077;-17
2020/12/25 13:52:03;;;;;;;5.88;2.05;;;20.80;46.00;;;;;;21073399;28;20103;-17
2020/12/25 14:02:03;;;;;;;7.45;2.15;;;20.70;46.00;;;;;;21080249;28;20027;-17
2020/12/25 14:12:04;;;;;;;4.00;1.67;;;20.60;46.00;;;;;;21049538;28;20124;-17
2020/12/25 14:22:05;;;;;;;4.33;1.83;;;20.60;46.10;;;;;;21076704;28;20024;-17
2020/12/25 14:32:05;;;;;;;5.30;1.48;;;20.50;46.20;;;;;;21073960;28;20545;-16
2020/12/25 14:42:06;;;;;;;3.60;1.15;;;20.50;46.20;;;;;;21069825;28;20111;-16
2020/12/25 14:52:06;;;;;;;4.65;1.67;;;20.40;46.30;;;;;;21069639;28;20115;-16
2020/12/25 15:02:07;;;;;;;3.67;1.98;;;20.40;46.30;;;;;;21069350;28;20452;-16
2020/12/25 15:12:08;;;;;;;5.57;0.93;;;20.30;46.20;;;;;;21060328;28;20065;-16
2020/12/25 15:22:09;;;;;;;2.75;1.25;;;20.30;46.30;;;;;;21068685;28;20883;-16
2020/12/25 15:32:09;;;;;;;3.38;1.45;;;20.30;46.30;;;;;;21067658;28;20024;-16
2020/12/25 15:42:10;;;;;;;2.85;1.23;;;20.20;46.30;;;;;;21067016;28;20020;-16
2020/12/25 15:52:10;;;;;;;2.50;0.93;;;20.20;46.30;;;;;;21032614;28;20032;-16
2020/12/25 16:02:11;;;;;;;1.80;0.90;;;20.20;46.30;;;;;;21035123;28;21024;-16
2020/12/25 16:12:12;;;;;;;3.00;1.42;;;20.10;46.30;;;;;;21070970;28;20119;-16
2020/12/25 16:22:12;;;;;;;5.53;1.20;;;20.10;46.30;;;;;;21045320;28;20117;-16
2020/12/25 16:32:13;;;;;;;3.22;0.90;;;20.10;46.30;;;;;;21028234;28;20625;-17
2020/12/25 16:42:13;;;;;;;2.95;1.02;;;20.00;46.40;;;;;;21027593;28;20381;-15
2020/12/25 16:52:14;;;;;;;2.97;1.02;;;20.50;45.90;;;;;;21033860;28;20051;-16
2020/12/25 17:02:14;;;;;;;2.55;0.80;;;21.20;44.00;;;;;;21028909;28;20028;-15
2020/12/25 17:12:15;;;;;;;2.53;0.93;;;21.90;42.70;;;;;;21023754;28;20408;-16
2020/12/25 17:22:16;;;;;;;2.50;0.90;;;22.50;41.50;;;;;;21053794;28;20125;-17
2020/12/25 17:32:17;;;;;;;2.43;0.83;;;23.00;40.60;;;;;;21073460;28;20027;-16
2020/12/25 17:42:17;;;;;;;3.25;1.38;;;23.50;39.90;;;;;;21062554;28;20036;-16
2020/12/25 17:52:18;;;;;;;4.10;1.30;;;23.40;40.10;;;;;;21071457;28;20560;-17
2020/12/25 18:02:18;;;;;;;1.73;0.88;;;23.00;40.90;;;;;;21074295;28;20359;-16
2020/12/25 18:12:19;;;;;;;2.55;1.05;;;22.70;41.40;;;;;;21050926;22;20064;-16
2020/12/25 18:22:19;;;;;;;2.70;1.40;;;22.50;41.70;;;;;;21050157;28;20077;-18
2020/12/25 18:32:20;;;;;;;1.33;0.52;;;22.50;41.80;;;;;;21056762;28;20131;-18
2020/12/25 18:42:21;;;;;;;2.33;0.88;;;22.30;42.00;;;;;;21062275;28;20039;-15
2020/12/25 18:52:21;;;;;;;1.40;0.63;;;22.30;42.00;;;;;;21062999;28;20024;-16
2020/12/25 19:02:22;;;;;;;2.95;1.13;;;22.30;42.10;;;;;;21023332;28;20029;-15
2020/12/25 19:12:23;;;;;;;5.22;1.00;;;22.20;42.40;;;;;;21022776;28;20032;-16
2020/12/25 19:22:23;;;;;;;7.20;1.30;;;22.30;43.10;;;;;;21025528;28;20025;-16
2020/12/25 19:32:27;;;;;;;6.30;1.30;;;22.30;43.30;;;;;;21059252;28;20399;-17
2020/12/25 19:42:27;;;;;;;9.85;1.40;;;22.20;43.60;;;;;;21077697;28;20103;-17
2020/12/25 19:52:28;;;;;;;8.55;2.60;;;22.30;43.60;;;;;;21047483;28;20056;-17
2020/12/25 20:02:29;;;;;;;6.80;1.58;;;22.20;43.40;;;;;;21042367;28;20033;-17
2020/12/25 20:12:29;;;;;;;4.07;1.33;;;22.30;43.10;;;;;;21016602;28;20499;-16
2020/12/25 20:22:30;;;;;;;13.90;2.35;;;22.20;43.20;;;;;;21043674;28;20476;-17
2020/12/25 20:32:30;;;;;;;7.05;1.42;;;22.10;43.60;;;;;;21063875;28;20668;-17
2020/12/25 20:42:31;;;;;;;9.45;1.67;;;22.20;44.20;;;;;;21055000;28;20084;-17
2020/12/25 20:52:32;;;;;;;8.23;1.20;;;22.70;43.30;;;;;;21059920;28;20043;-16
2020/12/25 21:02:32;;;;;;;5.47;1.83;;;23.40;42.30;;;;;;21066208;28;20046;-16
2020/12/25 21:12:36;;;;;;;7.15;1.60;;;23.90;41.50;;;;;;21066928;28;20028;-17
2020/12/25 21:22:37;;;;;;;4.55;1.23;;;24.40;41.20;;;;;;21066388;28;20483;-17
2020/12/25 21:32:37;;;;;;;6.75;1.67;;;24.80;40.70;;;;;;21067858;28;20048;-16
2020/12/25 21:42:38;;;;;;;8.70;1.40;;;25.10;40.40;;;;;;21070542;28;20081;-16
2020/12/25 21:52:38;;;;;;;3.05;1.30;;;24.70;40.90;;;;;;20999540;28;20032;-17
2020/12/25 22:02:40;;;;;;;3.38;1.30;;;24.30;41.70;;;;;;21051748;28;20027;-17
2020/12/25 22:12:41;;;;;;;3.08;1.52;;;23.90;42.50;;;;;;21068605;28;20083;-17
2020/12/25 22:22:41;;;;;;;7.43;1.83;;;23.80;42.70;;;;;;21067943;28;20024;-16
2020/12/25 22:32:42;;;;;;;4.13;2.63;;;23.60;43.20;;;;;;21066021;28;20067;-16
2020/12/25 22:42:43;;;;;;;4.97;2.43;;;23.50;42.60;;;;;;21069127;28;20031;-17
2020/12/25 22:52:43;;;;;;;4.88;3.03;;;23.30;42.70;;;;;;21068342;28;20877;-17
2020/12/25 23:02:44;;;;;;;8.27;2.38;;;23.10;43.20;;;;;;21093010;28;20055;-17
2020/12/25 23:12:44;;;;;;;20.90;13.20;;;23.40;44.40;;;;;;21062303;28;20036;-17
2020/12/25 23:22:45;;;;;;;40.92;32.92;;;23.90;43.90;;;;;;21092916;28;20107;-17
2020/12/25 23:32:47;;;;;;;36.55;27.27;;;23.90;43.80;;;;;;21040411;28;20116;-16
2020/12/25 23:42:48;;;;;;;29.90;25.13;;;23.80;44.00;;;;;;21018834;28;20575;-16
2020/12/25 23:52:49;;;;;;;27.63;22.60;;;23.50;44.50;;;;;;21017999;28;20408;-16
